createdAt,value
2022-10-22T00:01:01.291Z,12.57
2022-10-22T00:03:28.808Z,14.20
2022-10-22T00:05:56.245Z,13.95
2022-10-22T00:08:23.734Z,14.50
2022-10-22T00:10:51.556Z,14.23
2022-10-22T00:13:19.250Z,14.88
2022-10-22T00:15:46.741Z,12.98
2022-10-22T00:18:14.196Z,12.07
2022-10-22T00:20:41.982Z,12.77
2022-10-22T00:23:09.397Z,12.98
2022-10-22T00:25:37.294Z,12.23
2022-10-22T00:28:05.154Z,12.73
2022-10-22T00:30:32.651Z,12.77
2022-10-22T00:33:00.085Z,13.07
2022-10-22T00:35:27.522Z,11.98
2022-10-22T00:37:55.222Z,11.65
2022-10-22T00:40:22.645Z,11.48
2022-10-22T00:42:50.137Z,11.93
2022-10-22T00:45:26.127Z,11.40
2022-10-22T00:48:08.274Z,12.05
2022-10-22T00:50:42.716Z,11.50
2022-10-22T00:53:15.849Z,11.63
2022-10-22T00:55:45.486Z,11.15
2022-10-22T00:58:14.280Z,11.18
2022-10-22T01:00:42.081Z,10.52
2022-10-22T01:03:09.660Z,10.32
2022-10-22T01:05:51.613Z,10.15
2022-10-22T01:08:40.572Z,10.38
2022-10-22T01:11:52.342Z,11.07
2022-10-22T01:15:04.544Z,11.27
2022-10-22T01:18:01.366Z,11.02
2022-10-22T01:20:49.991Z,10.38
2022-10-22T01:24:14.639Z,11.40
2022-10-22T01:27:06.914Z,15.82
2022-10-22T01:29:50.257Z,14.68
2022-10-22T01:32:22.953Z,14.82
2022-10-22T01:35:02.412Z,13.40
2022-10-22T01:37:34.673Z,13.05
2022-10-22T01:40:03.233Z,13.63
2022-10-22T01:42:30.570Z,15.63
2022-10-22T01:44:58.121Z,15.45
2022-10-22T01:47:44.797Z,14.88
2022-10-22T01:50:20.883Z,14.50
2022-10-22T01:53:26.390Z,15.27
2022-10-22T01:56:24.234Z,15.52
2022-10-22T01:59:22.803Z,15.15
2022-10-22T02:02:00.052Z,15.73
2022-10-22T02:04:36.121Z,15.25
2022-10-22T02:07:08.256Z,15.00
2022-10-22T02:09:37.360Z,14.68
2022-10-22T02:12:07.687Z,14.88
2022-10-22T02:14:40.351Z,15.52
2022-10-22T02:17:15.772Z,15.85
2022-10-22T02:19:54.821Z,15.75
2022-10-22T02:22:22.397Z,15.43
2022-10-22T02:24:50.703Z,14.90
2022-10-22T02:27:33.260Z,16.17
2022-10-22T02:30:12.615Z,15.50
2022-10-22T02:32:55.690Z,14.63
2022-10-22T02:35:26.727Z,14.05
2022-10-22T02:37:59.010Z,12.20
2022-10-22T02:40:27.150Z,12.20
2022-10-22T02:42:54.873Z,12.25
2022-10-22T02:45:22.874Z,13.35
2022-10-22T02:47:50.853Z,13.65
2022-10-22T02:50:18.664Z,12.95
2022-10-22T02:52:46.064Z,12.73
2022-10-22T02:55:13.450Z,12.80
2022-10-22T02:57:41.197Z,12.38
2022-10-22T03:00:10.915Z,12.55
2022-10-22T03:02:38.413Z,13.10
2022-10-22T03:05:07.015Z,12.82
2022-10-22T03:07:34.622Z,12.73
2022-10-22T03:10:02.030Z,12.48
2022-10-22T03:12:29.418Z,13.27
2022-10-22T03:14:56.807Z,13.88
2022-10-22T03:17:24.389Z,12.60
2022-10-22T03:19:51.779Z,13.27
2022-10-22T03:22:26.027Z,12.90
2022-10-22T03:27:29.189Z,13.32
2022-10-22T03:29:58.692Z,12.80
2022-10-22T03:32:26.113Z,13.35
2022-10-22T03:34:56.249Z,13.85
2022-10-22T03:37:25.826Z,12.90
2022-10-22T03:39:54.115Z,11.98
2022-10-22T03:42:22.611Z,11.80
2022-10-22T03:44:50.307Z,11.80
2022-10-22T03:47:17.707Z,12.75
2022-10-22T03:49:45.220Z,12.95
2022-10-22T03:52:15.233Z,12.55
2022-10-22T03:54:42.903Z,12.23
2022-10-22T03:57:10.837Z,12.48
2022-10-22T03:59:45.129Z,13.07
2022-10-22T04:04:41.238Z,12.77
2022-10-22T04:07:12.282Z,13.15
2022-10-22T04:09:39.761Z,12.82
2022-10-22T04:12:11.689Z,12.88
2022-10-22T04:14:39.174Z,12.10
2022-10-22T04:17:06.705Z,12.57
2022-10-22T04:19:34.111Z,12.65
2022-10-22T04:22:01.605Z,12.60
2022-10-22T04:24:31.825Z,11.77
2022-10-22T04:26:59.630Z,12.45
2022-10-22T04:29:27.668Z,12.00
2022-10-22T04:31:55.064Z,11.27
2022-10-22T04:34:22.540Z,11.73
2022-10-22T04:36:49.927Z,11.98
2022-10-22T04:39:17.351Z,11.05
2022-10-22T04:41:44.757Z,11.77
2022-10-22T04:44:13.781Z,10.73
2022-10-22T04:46:44.742Z,12.07
2022-10-22T04:49:12.184Z,11.50
2022-10-22T04:51:39.697Z,11.00
2022-10-22T04:54:08.132Z,11.30
2022-10-22T04:56:35.511Z,12.00
2022-10-22T04:59:07.286Z,11.10
2022-10-22T05:01:42.621Z,11.65
2022-10-22T05:04:17.114Z,11.98
2022-10-22T05:06:45.157Z,10.98
2022-10-22T05:09:17.527Z,13.07
2022-10-22T05:11:49.545Z,12.13
2022-10-22T05:14:25.163Z,12.13
2022-10-22T05:16:53.788Z,12.45
2022-10-22T05:19:31.199Z,12.90
2022-10-22T05:22:02.094Z,12.13
2022-10-22T05:24:31.847Z,12.40
2022-10-22T05:27:00.595Z,12.68
2022-10-22T05:29:28.610Z,12.85
2022-10-22T05:31:56.489Z,12.90
2022-10-22T05:34:27.589Z,12.80
2022-10-22T05:36:54.974Z,13.18
2022-10-22T05:39:22.348Z,12.95
2022-10-22T05:41:49.981Z,12.32
2022-10-22T05:44:17.408Z,13.05
2022-10-22T05:46:45.238Z,12.70
2022-10-22T05:49:15.605Z,13.52
2022-10-22T05:51:45.279Z,13.68
2022-10-22T05:54:22.223Z,14.15
2022-10-22T05:56:49.800Z,17.20
2022-10-22T05:59:17.267Z,15.43
2022-10-22T06:01:44.948Z,14.88
2022-10-22T06:04:29.807Z,13.88
2022-10-22T06:06:58.062Z,15.80
2022-10-22T06:12:04.042Z,13.57
2022-10-22T06:14:32.789Z,13.82
2022-10-22T06:17:01.276Z,13.93
2022-10-22T06:19:31.296Z,15.65
2022-10-22T06:21:59.109Z,15.68
2022-10-22T06:24:26.781Z,15.20
2022-10-22T06:26:54.146Z,15.57
2022-10-22T06:29:21.704Z,14.38
2022-10-22T06:31:49.888Z,15.05
2022-10-22T06:34:19.125Z,16.95
2022-10-22T06:36:47.820Z,15.88
2022-10-22T06:39:17.635Z,15.48
2022-10-22T06:41:45.247Z,15.05
2022-10-22T06:44:18.525Z,14.57
2022-10-22T06:46:45.982Z,15.27
2022-10-22T06:49:15.636Z,14.95
2022-10-22T06:51:43.327Z,14.48
2022-10-22T06:54:11.788Z,15.90
2022-10-22T06:56:39.261Z,15.68
2022-10-22T06:59:06.724Z,15.70
2022-10-22T07:01:36.323Z,17.05
2022-10-22T07:04:05.620Z,17.00
2022-10-22T07:06:33.543Z,17.63
2022-10-22T07:09:01.191Z,16.88
2022-10-22T07:11:35.440Z,16.98
2022-10-22T07:14:02.832Z,16.33
2022-10-22T07:16:32.465Z,16.27
2022-10-22T07:19:01.945Z,15.70
2022-10-22T07:21:29.850Z,16.42
2022-10-22T07:23:58.208Z,15.98
2022-10-22T07:26:28.306Z,16.77
2022-10-22T07:28:55.700Z,16.55
2022-10-22T07:31:25.646Z,15.20
2022-10-22T07:33:56.013Z,16.40
2022-10-22T07:36:25.718Z,16.23
2022-10-22T07:38:58.706Z,16.48
2022-10-22T07:41:28.094Z,15.60
2022-10-22T07:43:56.086Z,15.48
2022-10-22T07:46:24.793Z,15.65
2022-10-22T07:48:52.508Z,14.40
2022-10-22T07:51:19.997Z,14.88
2022-10-22T07:53:49.927Z,14.23
2022-10-22T07:56:17.808Z,14.23
2022-10-22T07:58:45.252Z,13.77
2022-10-22T08:01:12.755Z,14.10
2022-10-22T08:03:40.257Z,14.38
2022-10-22T08:06:08.028Z,13.70
2022-10-22T08:08:35.595Z,14.98
2022-10-22T08:11:03.243Z,15.20
2022-10-22T08:13:30.881Z,15.32
2022-10-22T08:16:01.868Z,15.70
2022-10-22T08:18:30.099Z,14.93
2022-10-22T08:20:57.839Z,15.43
2022-10-22T08:23:30.323Z,14.52
2022-10-22T08:25:59.692Z,15.07
2022-10-22T08:28:28.900Z,15.05
2022-10-22T08:30:56.794Z,14.27
2022-10-22T08:33:26.481Z,14.68
2022-10-22T08:35:54.256Z,14.75
2022-10-22T08:38:21.695Z,13.95
2022-10-22T08:40:57.710Z,13.65
2022-10-22T08:43:41.263Z,15.05
2022-10-22T08:46:38.071Z,13.70
2022-10-22T08:49:13.118Z,13.77
2022-10-22T08:51:40.643Z,14.77
2022-10-22T08:54:27.375Z,14.90
2022-10-22T08:57:24.422Z,15.13
2022-10-22T09:00:15.049Z,15.65
2022-10-22T09:03:05.998Z,14.88
2022-10-22T09:06:15.233Z,14.85
2022-10-22T09:08:46.401Z,14.93
2022-10-22T09:11:13.625Z,14.40
2022-10-22T09:13:44.139Z,15.70
2022-10-22T09:16:24.405Z,15.02
2022-10-22T09:19:00.909Z,15.10
2022-10-22T09:21:47.346Z,15.35
2022-10-22T09:24:46.756Z,14.65
2022-10-22T09:27:25.755Z,15.32
2022-10-22T09:29:55.790Z,15.30
2022-10-22T09:32:23.737Z,14.30
2022-10-22T09:34:55.334Z,15.27
2022-10-22T09:37:28.519Z,15.57
2022-10-22T09:39:59.042Z,16.52
2022-10-22T09:42:26.657Z,20.13
2022-10-22T09:44:57.947Z,21.88
2022-10-22T09:48:00.403Z,21.13
2022-10-22T09:50:45.363Z,22.00
2022-10-22T09:53:36.000Z,19.83
2022-10-22T09:56:14.570Z,21.10
2022-10-22T09:58:49.447Z,21.85
2022-10-22T10:01:31.173Z,21.02
2022-10-22T10:04:13.385Z,21.90
2022-10-22T10:06:44.276Z,21.60
2022-10-22T10:09:24.723Z,21.15
2022-10-22T10:12:33.733Z,21.63
2022-10-22T10:15:36.644Z,22.23
2022-10-22T10:19:10.626Z,20.35
2022-10-22T10:22:14.784Z,19.90
2022-10-22T10:25:03.427Z,18.48
2022-10-22T10:27:47.288Z,19.13
2022-10-22T10:30:20.810Z,18.83
2022-10-22T10:33:24.995Z,18.35
2022-10-22T10:36:32.446Z,19.80
2022-10-22T10:39:17.495Z,19.83
2022-10-22T10:42:13.789Z,19.50
2022-10-22T10:44:46.684Z,17.92
2022-10-22T10:48:02.135Z,19.08
2022-10-22T10:50:44.767Z,19.50
2022-10-22T10:53:35.954Z,20.17
2022-10-22T10:56:25.407Z,18.58
2022-10-22T10:59:23.416Z,19.85
2022-10-22T11:02:18.106Z,23.73
2022-10-22T11:04:52.220Z,24.33
2022-10-22T11:07:34.553Z,22.02
2022-10-22T11:10:47.483Z,22.25
2022-10-22T11:13:43.860Z,28.67
2022-10-22T11:16:48.255Z,22.05
2022-10-22T11:19:50.331Z,15.87
2022-10-22T11:23:18.993Z,14.35
2022-10-22T11:25:49.909Z,14.43
2022-10-22T11:28:40.663Z,19.80
2022-10-22T11:31:17.340Z,47.72
2022-10-22T11:34:39.391Z,60.95
2022-10-22T11:37:07.992Z,49.40
2022-10-22T11:39:55.749Z,20.08
2022-10-22T11:42:39.322Z,15.30
2022-10-22T11:45:29.471Z,13.43
2022-10-22T11:48:19.381Z,13.30
2022-10-22T11:51:00.319Z,11.77
2022-10-22T11:53:32.913Z,12.52
2022-10-22T11:56:10.798Z,12.95
2022-10-22T11:58:39.517Z,12.90
2022-10-22T12:01:09.928Z,12.45
2022-10-22T12:03:50.113Z,13.52
2022-10-22T12:06:22.262Z,13.85
2022-10-22T12:08:49.636Z,13.50
2022-10-22T12:11:20.036Z,12.73
2022-10-22T12:14:15.034Z,14.65
2022-10-22T12:17:10.410Z,13.10
2022-10-22T12:19:47.964Z,12.57
2022-10-22T12:22:33.944Z,12.60
2022-10-22T12:25:06.622Z,12.90
2022-10-22T12:27:41.111Z,13.35
2022-10-22T12:30:31.817Z,14.20
2022-10-22T12:33:02.462Z,13.68
2022-10-22T12:35:44.043Z,14.82
2022-10-22T12:38:22.568Z,15.38
2022-10-22T12:40:52.152Z,19.83
2022-10-22T12:43:26.702Z,16.52
2022-10-22T12:45:54.882Z,15.60
2022-10-22T12:48:30.887Z,15.10
2022-10-22T12:51:04.534Z,15.95
2022-10-22T12:53:37.948Z,15.25
2022-10-22T12:56:22.852Z,16.73
2022-10-22T12:59:07.649Z,17.85
2022-10-22T13:01:39.869Z,15.70
2022-10-22T13:04:17.421Z,17.40
2022-10-22T13:06:54.713Z,18.45
2022-10-22T13:09:27.475Z,18.63
2022-10-22T13:12:04.778Z,17.43
2022-10-22T13:14:38.201Z,16.60
2022-10-22T13:17:42.343Z,15.27
2022-10-22T13:20:25.951Z,14.43
2022-10-22T13:23:03.456Z,15.07
2022-10-22T13:25:39.717Z,16.42
2022-10-22T13:28:20.199Z,17.55
2022-10-22T13:31:08.923Z,16.42
2022-10-22T13:33:44.331Z,16.85
2022-10-22T13:36:18.377Z,16.38
2022-10-22T13:38:46.439Z,16.00
2022-10-22T13:41:34.721Z,15.82
2022-10-22T13:44:02.170Z,15.10
2022-10-22T13:46:29.783Z,14.35
2022-10-22T13:48:59.976Z,14.27
2022-10-22T13:51:35.617Z,16.15
2022-10-22T13:54:06.644Z,16.52
2022-10-22T13:56:34.121Z,18.00
2022-10-22T13:59:01.600Z,90.20
2022-10-22T14:01:29.235Z,47.53
2022-10-22T14:03:59.972Z,37.20
2022-10-22T14:06:31.672Z,39.83
2022-10-22T14:09:12.987Z,29.58
2022-10-22T14:11:40.606Z,24.50
2022-10-22T14:14:09.275Z,20.58
2022-10-22T14:16:38.415Z,19.50
2022-10-22T14:19:14.948Z,17.73
2022-10-22T14:21:42.366Z,17.25
2022-10-22T14:24:13.206Z,18.13
2022-10-22T14:26:41.136Z,18.42
2022-10-22T14:29:09.890Z,19.05
2022-10-22T14:31:44.037Z,21.73
2022-10-22T14:34:14.725Z,22.85
2022-10-22T14:36:45.125Z,24.08
2022-10-22T14:39:13.578Z,23.58
2022-10-22T14:41:44.674Z,25.30
2022-10-22T14:44:15.387Z,23.02
2022-10-22T14:46:44.367Z,23.10
2022-10-22T14:49:12.487Z,24.10
2022-10-22T14:51:40.098Z,23.70
2022-10-22T14:54:07.531Z,21.48
2022-10-22T14:59:02.928Z,22.52
2022-10-22T15:01:30.338Z,21.77
2022-10-22T15:03:57.746Z,21.42
2022-10-22T15:06:25.136Z,23.33
2022-10-22T15:08:52.583Z,23.27
2022-10-22T15:11:20.044Z,22.80
2022-10-22T15:13:47.507Z,23.33
2022-10-22T15:16:17.174Z,23.15
2022-10-22T15:18:44.874Z,23.33
2022-10-22T15:21:18.841Z,23.55
2022-10-22T15:23:46.410Z,24.05
2022-10-22T15:26:14.389Z,24.20
2022-10-22T15:28:42.439Z,23.98
2022-10-22T15:31:15.475Z,25.60
2022-10-22T15:33:44.391Z,25.05
2022-10-22T15:36:17.161Z,24.00
2022-10-22T15:38:44.692Z,26.65
2022-10-22T15:41:13.642Z,28.42
2022-10-22T15:43:41.165Z,28.33
2022-10-22T15:46:18.505Z,27.08
2022-10-22T15:48:46.333Z,30.33
2022-10-22T15:51:17.624Z,25.85
2022-10-22T15:53:54.124Z,24.55
2022-10-22T15:56:22.471Z,26.02
2022-10-22T15:59:02.736Z,24.42
2022-10-22T16:01:31.221Z,24.27
2022-10-22T16:04:08.230Z,24.90
2022-10-22T16:06:42.707Z,26.33
2022-10-22T16:09:16.086Z,27.65
2022-10-22T16:11:44.132Z,28.50
2022-10-22T16:14:14.260Z,30.63
2022-10-22T16:16:48.428Z,31.73
2022-10-22T16:19:18.718Z,27.20
2022-10-22T16:21:46.433Z,24.23
2022-10-22T16:24:13.911Z,24.20
2022-10-22T16:26:41.367Z,25.20
2022-10-22T16:29:11.534Z,25.83
2022-10-22T16:31:40.898Z,27.90
2022-10-22T16:34:22.130Z,25.90
2022-10-22T16:36:49.854Z,24.55
2022-10-22T16:39:17.264Z,24.95
2022-10-22T16:41:44.653Z,23.48
2022-10-22T16:44:13.437Z,24.33
2022-10-22T16:46:40.923Z,25.17
2022-10-22T16:49:08.653Z,24.15
2022-10-22T16:51:36.560Z,22.40
2022-10-22T16:54:06.786Z,21.40
2022-10-22T16:56:38.215Z,20.85
2022-10-22T16:59:06.366Z,20.70
2022-10-22T17:01:37.894Z,17.80
2022-10-22T17:06:35.374Z,18.92
2022-10-22T17:09:03.000Z,19.60
2022-10-22T17:11:35.201Z,20.35
2022-10-22T17:14:04.647Z,22.23
2022-10-22T17:16:32.030Z,19.90
2022-10-22T17:18:59.489Z,20.98
2022-10-22T17:21:26.933Z,21.42
2022-10-22T17:23:58.599Z,34.00
2022-10-22T17:26:27.279Z,47.25
2022-10-22T17:28:55.493Z,30.52
2022-10-22T17:31:31.854Z,27.55
2022-10-22T17:34:00.164Z,22.63
2022-10-22T17:36:31.787Z,29.83
2022-10-22T17:39:06.690Z,25.75
2022-10-22T17:41:37.324Z,23.33
2022-10-22T17:44:09.097Z,20.63
2022-10-22T17:46:37.575Z,19.75
2022-10-22T17:49:17.252Z,20.48
2022-10-22T17:51:45.019Z,21.70
2022-10-22T17:54:14.015Z,20.10
2022-10-22T17:56:41.468Z,22.55
2022-10-22T17:59:13.501Z,21.20
2022-10-22T18:01:45.656Z,21.88
2022-10-22T18:04:17.834Z,21.95
2022-10-22T18:06:47.162Z,24.20
2022-10-22T18:09:19.543Z,24.08
2022-10-22T18:11:49.086Z,22.52
2022-10-22T18:14:19.221Z,21.88
2022-10-22T18:16:48.012Z,20.98
2022-10-22T18:19:18.655Z,23.80
2022-10-22T18:21:46.498Z,22.58
2022-10-22T18:24:15.532Z,22.73
2022-10-22T18:26:43.801Z,23.98
2022-10-22T18:29:17.082Z,28.48
2022-10-22T18:31:48.059Z,25.73
2022-10-22T18:34:17.711Z,23.83
2022-10-22T18:36:47.862Z,24.60
2022-10-22T18:39:16.861Z,26.13
2022-10-22T18:41:44.718Z,24.40
2022-10-22T18:44:14.798Z,22.40
2022-10-22T18:46:42.167Z,25.60
2022-10-22T18:49:12.144Z,27.45
2022-10-22T18:51:42.304Z,25.58
2022-10-22T18:54:28.629Z,26.95
2022-10-22T18:57:02.537Z,30.33
2022-10-22T18:59:30.606Z,30.02
2022-10-22T19:01:59.748Z,28.02
2022-10-22T19:04:33.279Z,26.27
2022-10-22T19:07:03.679Z,26.27
2022-10-22T19:09:31.892Z,27.80
2022-10-22T19:12:00.950Z,27.45
2022-10-22T19:14:28.829Z,27.80
2022-10-22T19:16:56.227Z,27.35
2022-10-22T19:19:24.574Z,27.85
2022-10-22T19:21:52.437Z,26.60
2022-10-22T19:24:21.671Z,26.45
2022-10-22T19:26:50.166Z,28.35
2022-10-22T19:29:20.671Z,27.13
2022-10-22T19:31:50.653Z,27.52
2022-10-22T19:34:18.168Z,26.15
2022-10-22T19:36:45.615Z,24.88
2022-10-22T19:39:17.262Z,25.83
2022-10-22T19:41:44.947Z,27.70
2022-10-22T19:44:12.372Z,27.00
2022-10-22T19:46:39.850Z,28.70
2022-10-22T19:49:07.322Z,27.35
2022-10-22T19:51:34.892Z,32.47
2022-10-22T19:54:06.637Z,28.77
2022-10-22T19:56:37.712Z,29.23
2022-10-22T19:59:08.490Z,29.42
2022-10-22T20:01:35.991Z,29.02
2022-10-22T20:04:07.548Z,29.30
2022-10-22T20:06:34.942Z,28.67
2022-10-22T20:09:02.410Z,29.15
2022-10-22T20:11:30.794Z,27.10
2022-10-22T20:13:59.090Z,27.65
2022-10-22T20:16:30.066Z,31.00
2022-10-22T20:19:05.287Z,26.55
2022-10-22T20:21:33.530Z,24.10
2022-10-22T20:24:01.727Z,24.73
2022-10-22T20:26:31.717Z,25.25
2022-10-22T20:28:59.919Z,25.77
2022-10-22T20:31:29.715Z,27.88
2022-10-22T20:34:01.898Z,29.60
2022-10-22T20:36:31.592Z,29.73
2022-10-22T20:39:06.489Z,29.38
2022-10-22T20:41:35.683Z,27.63
2022-10-22T20:44:03.108Z,28.77
2022-10-22T20:46:33.842Z,28.52
2022-10-22T20:49:05.988Z,29.98
2022-10-22T20:51:34.814Z,30.40
2022-10-22T20:54:02.251Z,31.02
2022-10-22T20:56:29.894Z,32.88
2022-10-22T20:59:05.430Z,31.15
2022-10-22T21:01:44.828Z,29.90
2022-10-22T21:04:12.540Z,30.85
2022-10-22T21:06:41.540Z,32.13
2022-10-22T21:09:11.216Z,33.95
2022-10-22T21:11:40.019Z,33.47
2022-10-22T21:14:12.926Z,30.25
2022-10-22T21:16:50.957Z,30.00
2022-10-22T21:19:20.421Z,28.17
2022-10-22T21:21:47.921Z,28.83
2022-10-22T21:24:15.431Z,29.13
2022-10-22T21:26:44.635Z,27.10
2022-10-22T21:29:13.543Z,27.67
2022-10-22T21:31:41.167Z,30.77
2022-10-22T21:34:08.849Z,28.25
2022-10-22T21:36:36.327Z,26.77
2022-10-22T21:39:04.112Z,27.42
2022-10-22T21:41:31.816Z,26.40
2022-10-22T21:43:59.735Z,26.85
2022-10-22T21:46:28.734Z,29.38
2022-10-22T21:49:02.706Z,29.35
2022-10-22T21:51:35.398Z,27.55
2022-10-22T21:54:03.294Z,30.45
2022-10-22T21:56:34.968Z,29.65
2022-10-22T21:59:05.020Z,28.58
2022-10-22T22:01:33.006Z,29.25
2022-10-22T22:04:00.771Z,25.15
2022-10-22T22:06:33.332Z,25.13
2022-10-22T22:09:01.681Z,24.75
2022-10-22T22:11:30.306Z,25.60
2022-10-22T22:13:59.016Z,26.38
2022-10-22T22:16:30.972Z,26.95
2022-10-22T22:19:07.570Z,26.50
2022-10-22T22:21:39.320Z,28.05
2022-10-22T22:24:07.888Z,25.98
2022-10-22T22:26:35.383Z,24.85
2022-10-22T22:29:03.099Z,24.20
2022-10-22T22:31:33.570Z,23.48
2022-10-22T22:34:12.964Z,27.10
2022-10-22T22:36:43.837Z,24.00
2022-10-22T22:39:21.137Z,25.55
2022-10-22T22:41:48.679Z,26.45
2022-10-22T22:44:16.567Z,25.83
2022-10-22T22:46:44.709Z,28.38
2022-10-22T22:49:13.850Z,24.85
2022-10-22T22:51:41.372Z,24.77
2022-10-22T22:54:10.030Z,24.83
2022-10-22T22:56:38.164Z,26.27
2022-10-22T22:59:06.656Z,24.58
2022-10-22T23:01:37.821Z,26.05
2022-10-22T23:04:12.238Z,26.75
2022-10-22T23:06:40.496Z,25.27
2022-10-22T23:09:11.990Z,25.02
2022-10-22T23:11:42.088Z,24.77
2022-10-22T23:14:14.741Z,26.17
2022-10-22T23:16:49.651Z,26.00
2022-10-22T23:19:21.023Z,25.10
2022-10-22T23:21:55.055Z,25.50
2022-10-22T23:24:27.391Z,25.92
2022-10-22T23:26:57.068Z,24.70
2022-10-22T23:29:32.740Z,28.08
2022-10-22T23:32:03.124Z,26.88
2022-10-22T23:34:31.674Z,26.10
2022-10-22T23:37:00.062Z,25.58
2022-10-22T23:39:29.686Z,26.23
2022-10-22T23:41:57.952Z,27.27
2022-10-22T23:44:25.874Z,27.05
2022-10-22T23:46:53.397Z,26.80
2022-10-22T23:49:20.954Z,27.50
2022-10-22T23:51:48.517Z,28.27
2022-10-22T23:54:18.521Z,26.27
2022-10-22T23:56:46.403Z,29.85
